sensor_id;sensor_type;location;lat;lon;timestamp;P1;durP1;ratioP1;P2;durP2;ratioP2
66169;SDS011;66757;44.024;20.456;2023-02-15T00:01:14;141.45;;;82.60;;
66169;SDS011;66757;44.024;20.456;2023-02-15T00:03:39;129.48;;;75.45;;
66169;SDS011;66757;44.024;20.456;2023-02-15T00:06:04;125.97;;;70.68;;
66169;SDS011;66757;44.024;20.456;2023-02-15T00:08:30;115.18;;;65.70;;
66169;SDS011;66757;44.024;20.456;2023-02-15T00:11:08;114.68;;;64.03;;
66169;SDS011;66757;44.024;20.456;2023-02-15T00:13:34;106.38;;;63.92;;
66169;SDS011;66757;44.024;20.456;2023-02-15T00:16:08;117.20;;;68.28;;
66169;SDS011;66757;44.024;20.456;2023-02-15T00:18:33;156.10;;;87.82;;
66169;SDS011;66757;44.024;20.456;2023-02-15T00:21:02;138.98;;;81.28;;
66169;SDS011;66757;44.024;20.456;2023-02-15T00:23:27;164.90;;;89.82;;
66169;SDS011;66757;44.024;20.456;2023-02-15T00:26:02;158.15;;;90.07;;
66169;SDS011;66757;44.024;20.456;2023-02-15T00:28:27;162.95;;;88.82;;
66169;SDS011;66757;44.024;20.456;2023-02-15T00:30:52;163.02;;;86.72;;
66169;SDS011;66757;44.024;20.456;2023-02-15T00:33:18;162.02;;;89.00;;
66169;SDS011;66757;44.024;20.456;2023-02-15T00:35:43;152.93;;;86.00;;
66169;SDS011;66757;44.024;20.456;2023-02-15T00:38:08;150.20;;;83.78;;
66169;SDS011;66757;44.024;20.456;2023-02-15T00:40:34;150.43;;;83.22;;
66169;SDS011;66757;44.024;20.456;2023-02-15T00:42:59;133.48;;;75.88;;
66169;SDS011;66757;44.024;20.456;2023-02-15T00:45:24;160.02;;;90.05;;
66169;SDS011;66757;44.024;20.456;2023-02-15T00:47:49;176.20;;;98.32;;
66169;SDS011;66757;44.024;20.456;2023-02-15T00:50:15;168.30;;;96.97;;
66169;SDS011;66757;44.024;20.456;2023-02-15T00:52:40;197.63;;;111.70;;
66169;SDS011;66757;44.024;20.456;2023-02-15T00:55:06;393.05;;;207.65;;
66169;SDS011;66757;44.024;20.456;2023-02-15T00:57:31;430.58;;;237.38;;
66169;SDS011;66757;44.024;20.456;2023-02-15T00:59:56;359.50;;;186.07;;
66169;SDS011;66757;44.024;20.456;2023-02-15T01:02:22;408.23;;;219.60;;
66169;SDS011;66757;44.024;20.456;2023-02-15T01:04:47;392.05;;;204.27;;
66169;SDS011;66757;44.024;20.456;2023-02-15T01:07:12;327.75;;;168.40;;
66169;SDS011;66757;44.024;20.456;2023-02-15T01:09:38;401.73;;;192.07;;
66169;SDS011;66757;44.024;20.456;2023-02-15T01:12:04;369.33;;;167.68;;
66169;SDS011;66757;44.024;20.456;2023-02-15T01:14:29;244.40;;;121.75;;
66169;SDS011;66757;44.024;20.456;2023-02-15T01:16:55;265.20;;;123.47;;
66169;SDS011;66757;44.024;20.456;2023-02-15T01:19:20;224.15;;;110.30;;
66169;SDS011;66757;44.024;20.456;2023-02-15T01:21:47;175.93;;;89.22;;
66169;SDS011;66757;44.024;20.456;2023-02-15T01:24:13;209.20;;;104.47;;
66169;SDS011;66757;44.024;20.456;2023-02-15T01:26:40;230.43;;;109.38;;
66169;SDS011;66757;44.024;20.456;2023-02-15T01:29:06;258.40;;;119.65;;
66169;SDS011;66757;44.024;20.456;2023-02-15T01:31:31;347.23;;;145.88;;
66169;SDS011;66757;44.024;20.456;2023-02-15T01:33:56;447.40;;;200.57;;
66169;SDS011;66757;44.024;20.456;2023-02-15T01:36:22;375.95;;;171.50;;
66169;SDS011;66757;44.024;20.456;2023-02-15T01:38:47;360.98;;;162.77;;
66169;SDS011;66757;44.024;20.456;2023-02-15T01:41:14;352.70;;;161.68;;
66169;SDS011;66757;44.024;20.456;2023-02-15T01:43:50;297.42;;;145.55;;
66169;SDS011;66757;44.024;20.456;2023-02-15T01:46:15;250.88;;;135.77;;
66169;SDS011;66757;44.024;20.456;2023-02-15T01:48:43;269.60;;;143.15;;
66169;SDS011;66757;44.024;20.456;2023-02-15T01:51:09;292.52;;;152.85;;
66169;SDS011;66757;44.024;20.456;2023-02-15T01:53:37;167.15;;;88.65;;
66169;SDS011;66757;44.024;20.456;2023-02-15T01:56:06;369.92;;;173.82;;
66169;SDS011;66757;44.024;20.456;2023-02-15T01:58:33;287.67;;;131.07;;
66169;SDS011;66757;44.024;20.456;2023-02-15T02:01:00;273.17;;;135.95;;
66169;SDS011;66757;44.024;20.456;2023-02-15T02:06:09;250.82;;;120.63;;
66169;SDS011;66757;44.024;20.456;2023-02-15T02:08:35;216.23;;;113.10;;
66169;SDS011;66757;44.024;20.456;2023-02-15T02:11:00;217.75;;;115.00;;
66169;SDS011;66757;44.024;20.456;2023-02-15T02:13:26;182.88;;;94.55;;
66169;SDS011;66757;44.024;20.456;2023-02-15T02:16:00;155.70;;;84.43;;
66169;SDS011;66757;44.024;20.456;2023-02-15T02:18:30;111.57;;;58.58;;
66169;SDS011;66757;44.024;20.456;2023-02-15T02:28:30;107.45;;;58.28;;
66169;SDS011;66757;44.024;20.456;2023-02-15T02:33:28;124.55;;;58.60;;
66169;SDS011;66757;44.024;20.456;2023-02-15T02:36:08;65.32;;;37.95;;
66169;SDS011;66757;44.024;20.456;2023-02-15T02:46:13;66.57;;;37.78;;
66169;SDS011;66757;44.024;20.456;2023-02-15T02:48:40;76.50;;;39.88;;
66169;SDS011;66757;44.024;20.456;2023-02-15T02:51:06;69.60;;;39.90;;
66169;SDS011;66757;44.024;20.456;2023-02-15T02:53:31;70.95;;;38.28;;
66169;SDS011;66757;44.024;20.456;2023-02-15T02:55:59;69.80;;;38.60;;
66169;SDS011;66757;44.024;20.456;2023-02-15T02:58:31;62.85;;;34.25;;
66169;SDS011;66757;44.024;20.456;2023-02-15T03:01:00;70.10;;;38.08;;
66169;SDS011;66757;44.024;20.456;2023-02-15T03:05:59;102.85;;;55.88;;
66169;SDS011;66757;44.024;20.456;2023-02-15T03:08:27;98.10;;;52.53;;
66169;SDS011;66757;44.024;20.456;2023-02-15T03:10:56;121.55;;;65.07;;
66169;SDS011;66757;44.024;20.456;2023-02-15T03:13:22;118.38;;;67.25;;
66169;SDS011;66757;44.024;20.456;2023-02-15T03:15:47;142.55;;;77.72;;
66169;SDS011;66757;44.024;20.456;2023-02-15T03:18:34;155.07;;;83.87;;
66169;SDS011;66757;44.024;20.456;2023-02-15T03:21:00;147.73;;;77.93;;
66169;SDS011;66757;44.024;20.456;2023-02-15T03:23:26;142.43;;;78.93;;
66169;SDS011;66757;44.024;20.456;2023-02-15T03:25:56;124.93;;;69.22;;
66169;SDS011;66757;44.024;20.456;2023-02-15T03:28:23;124.65;;;68.13;;
66169;SDS011;66757;44.024;20.456;2023-02-15T03:30:51;127.07;;;70.43;;
66169;SDS011;66757;44.024;20.456;2023-02-15T03:33:18;124.13;;;69.82;;
66169;SDS011;66757;44.024;20.456;2023-02-15T03:38:46;280.67;;;120.80;;
66169;SDS011;66757;44.024;20.456;2023-02-15T03:41:14;183.27;;;91.32;;
66169;SDS011;66757;44.024;20.456;2023-02-15T03:46:07;125.30;;;65.22;;
66169;SDS011;66757;44.024;20.456;2023-02-15T03:48:37;173.82;;;86.50;;
66169;SDS011;66757;44.024;20.456;2023-02-15T03:51:08;152.85;;;75.45;;
66169;SDS011;66757;44.024;20.456;2023-02-15T03:53:52;114.97;;;58.40;;
66169;SDS011;66757;44.024;20.456;2023-02-15T03:56:19;83.78;;;43.80;;
66169;SDS011;66757;44.024;20.456;2023-02-15T03:58:44;78.15;;;43.88;;
66169;SDS011;66757;44.024;20.456;2023-02-15T04:01:33;70.43;;;39.33;;
66169;SDS011;66757;44.024;20.456;2023-02-15T04:04:18;79.68;;;42.70;;
66169;SDS011;66757;44.024;20.456;2023-02-15T04:06:44;68.35;;;37.03;;
66169;SDS011;66757;44.024;20.456;2023-02-15T04:09:09;77.35;;;40.03;;
66169;SDS011;66757;44.024;20.456;2023-02-15T04:11:53;82.57;;;42.90;;
66169;SDS011;66757;44.024;20.456;2023-02-15T04:14:18;82.60;;;41.92;;
66169;SDS011;66757;44.024;20.456;2023-02-15T04:17:07;95.80;;;52.05;;
66169;SDS011;66757;44.024;20.456;2023-02-15T04:19:32;115.22;;;62.92;;
66169;SDS011;66757;44.024;20.456;2023-02-15T04:22:16;126.30;;;68.05;;
66169;SDS011;66757;44.024;20.456;2023-02-15T04:25:00;87.80;;;48.03;;
66169;SDS011;66757;44.024;20.456;2023-02-15T04:27:38;70.72;;;39.75;;
66169;SDS011;66757;44.024;20.456;2023-02-15T04:30:04;63.20;;;34.42;;
66169;SDS011;66757;44.024;20.456;2023-02-15T04:32:30;62.05;;;34.65;;
66169;SDS011;66757;44.024;20.456;2023-02-15T04:34:55;66.68;;;35.33;;
66169;SDS011;66757;44.024;20.456;2023-02-15T04:37:20;66.32;;;35.17;;
66169;SDS011;66757;44.024;20.456;2023-02-15T04:39:45;78.53;;;43.13;;
66169;SDS011;66757;44.024;20.456;2023-02-15T04:42:11;80.22;;;43.65;;
66169;SDS011;66757;44.024;20.456;2023-02-15T04:44:36;76.80;;;41.58;;
66169;SDS011;66757;44.024;20.456;2023-02-15T04:47:01;68.95;;;39.60;;
66169;SDS011;66757;44.024;20.456;2023-02-15T04:49:27;83.35;;;45.83;;
66169;SDS011;66757;44.024;20.456;2023-02-15T04:51:52;73.78;;;41.70;;
66169;SDS011;66757;44.024;20.456;2023-02-15T04:54:17;73.35;;;41.13;;
66169;SDS011;66757;44.024;20.456;2023-02-15T04:56:42;77.78;;;43.97;;
66169;SDS011;66757;44.024;20.456;2023-02-15T04:59:11;81.47;;;44.25;;
66169;SDS011;66757;44.024;20.456;2023-02-15T05:01:37;84.28;;;48.63;;
66169;SDS011;66757;44.024;20.456;2023-02-15T05:04:02;111.13;;;59.33;;
66169;SDS011;66757;44.024;20.456;2023-02-15T05:06:28;112.45;;;63.00;;
66169;SDS011;66757;44.024;20.456;2023-02-15T05:08:53;95.85;;;53.97;;
66169;SDS011;66757;44.024;20.456;2023-02-15T05:11:19;90.57;;;48.95;;
66169;SDS011;66757;44.024;20.456;2023-02-15T05:13:45;78.05;;;43.25;;
66169;SDS011;66757;44.024;20.456;2023-02-15T05:16:10;61.47;;;34.17;;
66169;SDS011;66757;44.024;20.456;2023-02-15T05:18:36;61.15;;;34.20;;
66169;SDS011;66757;44.024;20.456;2023-02-15T05:21:02;65.90;;;35.47;;
66169;SDS011;66757;44.024;20.456;2023-02-15T05:23:27;71.03;;;38.28;;
66169;SDS011;66757;44.024;20.456;2023-02-15T05:25:53;63.53;;;34.50;;
66169;SDS011;66757;44.024;20.456;2023-02-15T05:28:37;56.60;;;33.53;;
66169;SDS011;66757;44.024;20.456;2023-02-15T05:33:31;62.58;;;36.80;;
66169;SDS011;66757;44.024;20.456;2023-02-15T05:35:56;59.13;;;35.35;;
66169;SDS011;66757;44.024;20.456;2023-02-15T05:38:22;58.05;;;35.50;;
66169;SDS011;66757;44.024;20.456;2023-02-15T05:40:47;54.95;;;32.95;;
66169;SDS011;66757;44.024;20.456;2023-02-15T05:43:12;58.67;;;33.38;;
66169;SDS011;66757;44.024;20.456;2023-02-15T05:45:38;58.63;;;34.15;;
66169;SDS011;66757;44.024;20.456;2023-02-15T05:48:03;62.72;;;36.33;;
66169;SDS011;66757;44.024;20.456;2023-02-15T05:50:29;67.22;;;39.85;;
66169;SDS011;66757;44.024;20.456;2023-02-15T05:52:54;103.50;;;60.25;;
66169;SDS011;66757;44.024;20.456;2023-02-15T05:55:20;138.57;;;76.32;;
66169;SDS011;66757;44.024;20.456;2023-02-15T05:57:45;145.40;;;78.85;;
66169;SDS011;66757;44.024;20.456;2023-02-15T06:00:11;158.27;;;85.88;;
66169;SDS011;66757;44.024;20.456;2023-02-15T06:02:36;169.68;;;93.07;;
66169;SDS011;66757;44.024;20.456;2023-02-15T06:05:02;183.55;;;96.53;;
66169;SDS011;66757;44.024;20.456;2023-02-15T06:07:28;181.90;;;98.97;;
66169;SDS011;66757;44.024;20.456;2023-02-15T06:09:53;173.25;;;97.72;;
66169;SDS011;66757;44.024;20.456;2023-02-15T06:12:18;139.50;;;76.00;;
66169;SDS011;66757;44.024;20.456;2023-02-15T06:14:44;138.07;;;74.30;;
66169;SDS011;66757;44.024;20.456;2023-02-15T06:17:09;132.50;;;71.78;;
66169;SDS011;66757;44.024;20.456;2023-02-15T06:19:35;131.45;;;72.75;;
66169;SDS011;66757;44.024;20.456;2023-02-15T06:22:01;96.18;;;55.85;;
66169;SDS011;66757;44.024;20.456;2023-02-15T06:24:26;101.30;;;61.67;;
66169;SDS011;66757;44.024;20.456;2023-02-15T06:26:51;99.70;;;56.65;;
66169;SDS011;66757;44.024;20.456;2023-02-15T06:29:17;100.10;;;55.75;;
66169;SDS011;66757;44.024;20.456;2023-02-15T06:31:42;100.18;;;55.40;;
66169;SDS011;66757;44.024;20.456;2023-02-15T06:34:07;99.35;;;56.03;;
66169;SDS011;66757;44.024;20.456;2023-02-15T06:36:33;111.40;;;62.75;;
66169;SDS011;66757;44.024;20.456;2023-02-15T06:38:58;121.72;;;70.85;;
66169;SDS011;66757;44.024;20.456;2023-02-15T06:41:23;120.32;;;70.70;;
66169;SDS011;66757;44.024;20.456;2023-02-15T06:43:49;104.90;;;63.58;;
66169;SDS011;66757;44.024;20.456;2023-02-15T06:46:14;104.22;;;60.00;;
66169;SDS011;66757;44.024;20.456;2023-02-15T06:48:40;111.05;;;63.45;;
66169;SDS011;66757;44.024;20.456;2023-02-15T06:51:06;121.22;;;71.65;;
66169;SDS011;66757;44.024;20.456;2023-02-15T06:53:31;121.15;;;72.97;;
66169;SDS011;66757;44.024;20.456;2023-02-15T06:56:01;119.68;;;70.68;;
66169;SDS011;66757;44.024;20.456;2023-02-15T06:58:28;122.35;;;73.00;;
66169;SDS011;66757;44.024;20.456;2023-02-15T07:00:53;127.15;;;75.95;;
66169;SDS011;66757;44.024;20.456;2023-02-15T07:03:18;122.60;;;72.65;;
66169;SDS011;66757;44.024;20.456;2023-02-15T07:05:44;116.75;;;69.60;;
66169;SDS011;66757;44.024;20.456;2023-02-15T07:08:10;114.93;;;68.30;;
66169;SDS011;66757;44.024;20.456;2023-02-15T07:10:36;114.50;;;68.70;;
66169;SDS011;66757;44.024;20.456;2023-02-15T07:13:01;93.30;;;55.25;;
66169;SDS011;66757;44.024;20.456;2023-02-15T07:15:26;87.00;;;50.83;;
66169;SDS011;66757;44.024;20.456;2023-02-15T07:17:52;74.97;;;44.85;;
66169;SDS011;66757;44.024;20.456;2023-02-15T07:20:19;72.80;;;45.05;;
66169;SDS011;66757;44.024;20.456;2023-02-15T07:22:45;83.32;;;48.78;;
66169;SDS011;66757;44.024;20.456;2023-02-15T07:25:11;70.15;;;40.42;;
66169;SDS011;66757;44.024;20.456;2023-02-15T07:27:36;76.32;;;42.13;;
66169;SDS011;66757;44.024;20.456;2023-02-15T07:30:02;85.13;;;49.72;;
66169;SDS011;66757;44.024;20.456;2023-02-15T07:32:28;80.63;;;45.95;;
66169;SDS011;66757;44.024;20.456;2023-02-15T07:34:54;81.57;;;47.30;;
66169;SDS011;66757;44.024;20.456;2023-02-15T07:37:19;76.75;;;47.10;;
66169;SDS011;66757;44.024;20.456;2023-02-15T07:39:45;73.90;;;43.58;;
66169;SDS011;66757;44.024;20.456;2023-02-15T07:42:10;73.68;;;43.72;;
66169;SDS011;66757;44.024;20.456;2023-02-15T07:44:35;68.78;;;41.60;;
66169;SDS011;66757;44.024;20.456;2023-02-15T07:47:00;69.20;;;40.30;;
66169;SDS011;66757;44.024;20.456;2023-02-15T07:49:26;61.28;;;37.05;;
66169;SDS011;66757;44.024;20.456;2023-02-15T07:51:51;55.35;;;32.90;;
66169;SDS011;66757;44.024;20.456;2023-02-15T07:54:16;56.83;;;33.95;;
66169;SDS011;66757;44.024;20.456;2023-02-15T07:56:43;53.42;;;32.13;;
66169;SDS011;66757;44.024;20.456;2023-02-15T07:59:08;51.42;;;31.05;;
66169;SDS011;66757;44.024;20.456;2023-02-15T08:01:34;65.90;;;39.83;;
66169;SDS011;66757;44.024;20.456;2023-02-15T08:04:00;58.63;;;32.50;;
66169;SDS011;66757;44.024;20.456;2023-02-15T08:06:28;61.55;;;34.17;;
66169;SDS011;66757;44.024;20.456;2023-02-15T08:08:54;52.78;;;32.80;;
66169;SDS011;66757;44.024;20.456;2023-02-15T08:11:23;60.83;;;35.92;;
66169;SDS011;66757;44.024;20.456;2023-02-15T08:14:03;55.00;;;32.10;;
66169;SDS011;66757;44.024;20.456;2023-02-15T08:18:54;53.17;;;30.70;;
66169;SDS011;66757;44.024;20.456;2023-02-15T08:21:20;50.83;;;30.27;;
66169;SDS011;66757;44.024;20.456;2023-02-15T08:23:45;48.38;;;28.35;;
66169;SDS011;66757;44.024;20.456;2023-02-15T08:26:11;46.80;;;28.42;;
66169;SDS011;66757;44.024;20.456;2023-02-15T08:28:36;31.33;;;20.23;;
66169;SDS011;66757;44.024;20.456;2023-02-15T08:31:05;35.60;;;21.10;;
66169;SDS011;66757;44.024;20.456;2023-02-15T08:33:30;42.53;;;25.20;;
66169;SDS011;66757;44.024;20.456;2023-02-15T08:35:56;50.47;;;29.08;;
66169;SDS011;66757;44.024;20.456;2023-02-15T08:38:23;44.13;;;28.27;;
66169;SDS011;66757;44.024;20.456;2023-02-15T08:40:48;42.33;;;26.80;;
66169;SDS011;66757;44.024;20.456;2023-02-15T08:43:13;151.25;;;84.25;;
66169;SDS011;66757;44.024;20.456;2023-02-15T08:45:39;64.07;;;39.17;;
66169;SDS011;66757;44.024;20.456;2023-02-15T08:48:04;53.95;;;32.13;;
66169;SDS011;66757;44.024;20.456;2023-02-15T08:50:29;49.47;;;30.58;;
66169;SDS011;66757;44.024;20.456;2023-02-15T08:52:55;61.33;;;36.20;;
66169;SDS011;66757;44.024;20.456;2023-02-15T08:55:21;101.47;;;59.30;;
66169;SDS011;66757;44.024;20.456;2023-02-15T08:57:47;68.30;;;39.80;;
66169;SDS011;66757;44.024;20.456;2023-02-15T09:00:13;57.17;;;33.10;;
66169;SDS011;66757;44.024;20.456;2023-02-15T09:02:39;60.78;;;37.70;;
66169;SDS011;66757;44.024;20.456;2023-02-15T09:05:05;55.00;;;31.77;;
66169;SDS011;66757;44.024;20.456;2023-02-15T09:07:31;42.60;;;27.02;;
66169;SDS011;66757;44.024;20.456;2023-02-15T09:09:56;43.03;;;26.70;;
66169;SDS011;66757;44.024;20.456;2023-02-15T09:12:22;49.63;;;29.25;;
66169;SDS011;66757;44.024;20.456;2023-02-15T09:14:47;48.03;;;28.73;;
66169;SDS011;66757;44.024;20.456;2023-02-15T09:17:12;39.45;;;24.00;;
66169;SDS011;66757;44.024;20.456;2023-02-15T09:19:39;48.92;;;22.23;;
66169;SDS011;66757;44.024;20.456;2023-02-15T09:22:06;40.85;;;22.90;;
66169;SDS011;66757;44.024;20.456;2023-02-15T09:24:32;32.22;;;18.83;;
66169;SDS011;66757;44.024;20.456;2023-02-15T09:26:58;58.90;;;22.48;;
66169;SDS011;66757;44.024;20.456;2023-02-15T09:29:25;36.90;;;20.45;;
66169;SDS011;66757;44.024;20.456;2023-02-15T09:31:50;28.20;;;18.40;;
66169;SDS011;66757;44.024;20.456;2023-02-15T09:34:17;29.33;;;16.67;;
66169;SDS011;66757;44.024;20.456;2023-02-15T09:36:43;29.90;;;18.08;;
66169;SDS011;66757;44.024;20.456;2023-02-15T09:52:05;32.80;;;19.85;;
66169;SDS011;66757;44.024;20.456;2023-02-15T09:54:50;45.92;;;22.42;;
66169;SDS011;66757;44.024;20.456;2023-02-15T09:59:55;48.60;;;23.65;;
66169;SDS011;66757;44.024;20.456;2023-02-15T10:20:23;42.42;;;21.63;;
66169;SDS011;66757;44.024;20.456;2023-02-15T10:27:49;24.08;;;15.43;;
66169;SDS011;66757;44.024;20.456;2023-02-15T10:30:15;37.78;;;19.27;;
66169;SDS011;66757;44.024;20.456;2023-02-15T10:33:04;42.03;;;21.63;;
66169;SDS011;66757;44.024;20.456;2023-02-15T10:35:42;38.40;;;20.60;;
66169;SDS011;66757;44.024;20.456;2023-02-15T10:46:11;74.78;;;44.33;;
66169;SDS011;66757;44.024;20.456;2023-02-15T10:51:05;29.40;;;16.98;;
66169;SDS011;66757;44.024;20.456;2023-02-15T10:58:56;26.45;;;15.32;;
66169;SDS011;66757;44.024;20.456;2023-02-15T11:01:36;28.15;;;15.95;;
66169;SDS011;66757;44.024;20.456;2023-02-15T11:04:08;22.40;;;14.15;;
66169;SDS011;66757;44.024;20.456;2023-02-15T11:06:36;23.88;;;15.85;;
66169;SDS011;66757;44.024;20.456;2023-02-15T11:09:08;30.15;;;17.50;;
66169;SDS011;66757;44.024;20.456;2023-02-15T11:11:37;23.83;;;15.10;;
66169;SDS011;66757;44.024;20.456;2023-02-15T11:14:13;20.77;;;14.05;;
66169;SDS011;66757;44.024;20.456;2023-02-15T11:16:40;25.48;;;15.20;;
66169;SDS011;66757;44.024;20.456;2023-02-15T11:21:43;24.63;;;15.50;;
66169;SDS011;66757;44.024;20.456;2023-02-15T11:24:13;34.55;;;19.42;;
66169;SDS011;66757;44.024;20.456;2023-02-15T11:26:41;24.02;;;15.88;;
66169;SDS011;66757;44.024;20.456;2023-02-15T11:31:46;39.20;;;23.00;;
66169;SDS011;66757;44.024;20.456;2023-02-15T11:34:25;42.45;;;19.75;;
66169;SDS011;66757;44.024;20.456;2023-02-15T11:36:52;31.67;;;18.98;;
66169;SDS011;66757;44.024;20.456;2023-02-15T11:39:19;23.35;;;15.30;;
66169;SDS011;66757;44.024;20.456;2023-02-15T11:41:47;31.83;;;18.60;;
66169;SDS011;66757;44.024;20.456;2023-02-15T11:44:17;20.23;;;14.15;;
66169;SDS011;66757;44.024;20.456;2023-02-15T11:46:44;23.42;;;18.05;;
66169;SDS011;66757;44.024;20.456;2023-02-15T11:49:16;29.95;;;20.42;;
66169;SDS011;66757;44.024;20.456;2023-02-15T11:51:45;46.70;;;32.80;;
66169;SDS011;66757;44.024;20.456;2023-02-15T11:54:11;40.03;;;24.85;;
66169;SDS011;66757;44.024;20.456;2023-02-15T11:56:36;29.98;;;19.70;;
66169;SDS011;66757;44.024;20.456;2023-02-15T11:59:03;22.42;;;17.80;;
66169;SDS011;66757;44.024;20.456;2023-02-15T12:01:33;25.50;;;20.13;;
66169;SDS011;66757;44.024;20.456;2023-02-15T12:06:37;25.15;;;17.20;;
66169;SDS011;66757;44.024;20.456;2023-02-15T12:09:12;24.70;;;18.20;;
66169;SDS011;66757;44.024;20.456;2023-02-15T12:11:41;21.70;;;17.15;;
66169;SDS011;66757;44.024;20.456;2023-02-15T12:14:10;24.77;;;17.90;;
66169;SDS011;66757;44.024;20.456;2023-02-15T12:16:54;22.48;;;15.68;;
66169;SDS011;66757;44.024;20.456;2023-02-15T12:19:31;18.77;;;14.48;;
66169;SDS011;66757;44.024;20.456;2023-02-15T12:21:57;21.35;;;15.48;;
66169;SDS011;66757;44.024;20.456;2023-02-15T12:24:25;21.73;;;15.88;;
66169;SDS011;66757;44.024;20.456;2023-02-15T12:26:58;19.58;;;14.07;;
66169;SDS011;66757;44.024;20.456;2023-02-15T12:29:26;25.40;;;15.73;;
66169;SDS011;66757;44.024;20.456;2023-02-15T12:31:51;24.02;;;14.55;;
66169;SDS011;66757;44.024;20.456;2023-02-15T12:36:53;16.33;;;13.68;;
66169;SDS011;66757;44.024;20.456;2023-02-15T12:39:26;16.23;;;13.23;;
66169;SDS011;66757;44.024;20.456;2023-02-15T12:47:04;16.30;;;13.57;;
66169;SDS011;66757;44.024;20.456;2023-02-15T12:49:34;24.73;;;18.00;;
66169;SDS011;66757;44.024;20.456;2023-02-15T12:52:01;16.85;;;12.52;;
66169;SDS011;66757;44.024;20.456;2023-02-15T12:54:32;20.20;;;14.50;;
66169;SDS011;66757;44.024;20.456;2023-02-15T12:57:01;20.40;;;14.82;;
66169;SDS011;66757;44.024;20.456;2023-02-15T12:59:37;28.20;;;15.27;;
66169;SDS011;66757;44.024;20.456;2023-02-15T13:02:15;20.42;;;13.73;;
66169;SDS011;66757;44.024;20.456;2023-02-15T13:04:47;20.40;;;12.60;;
66169;SDS011;66757;44.024;20.456;2023-02-15T13:07:13;23.38;;;14.13;;
66169;SDS011;66757;44.024;20.456;2023-02-15T13:09:39;18.45;;;13.38;;
66169;SDS011;66757;44.024;20.456;2023-02-15T13:12:24;22.77;;;14.18;;
66169;SDS011;66757;44.024;20.456;2023-02-15T13:14:52;24.02;;;14.02;;
66169;SDS011;66757;44.024;20.456;2023-02-15T13:17:21;20.83;;;12.75;;
66169;SDS011;66757;44.024;20.456;2023-02-15T13:19:52;19.90;;;13.40;;
66169;SDS011;66757;44.024;20.456;2023-02-15T13:22:20;24.73;;;13.98;;
66169;SDS011;66757;44.024;20.456;2023-02-15T13:24:48;24.33;;;14.05;;
66169;SDS011;66757;44.024;20.456;2023-02-15T13:27:16;30.08;;;18.38;;
66169;SDS011;66757;44.024;20.456;2023-02-15T13:29:47;32.45;;;19.65;;
66169;SDS011;66757;44.024;20.456;2023-02-15T13:34:39;30.08;;;21.10;;
66169;SDS011;66757;44.024;20.456;2023-02-15T13:37:12;25.88;;;17.90;;
66169;SDS011;66757;44.024;20.456;2023-02-15T13:45:05;31.92;;;17.80;;
66169;SDS011;66757;44.024;20.456;2023-02-15T13:47:41;31.38;;;17.42;;
66169;SDS011;66757;44.024;20.456;2023-02-15T13:53:02;37.20;;;21.65;;
66169;SDS011;66757;44.024;20.456;2023-02-15T14:10:38;29.13;;;17.33;;
66169;SDS011;66757;44.024;20.456;2023-02-15T14:13:15;27.90;;;15.07;;
66169;SDS011;66757;44.024;20.456;2023-02-15T14:20:44;28.17;;;18.27;;
66169;SDS011;66757;44.024;20.456;2023-02-15T14:25:50;29.38;;;19.50;;
66169;SDS011;66757;44.024;20.456;2023-02-15T14:29:02;33.08;;;19.70;;
66169;SDS011;66757;44.024;20.456;2023-02-15T14:31:08;38.38;;;23.75;;
66169;SDS011;66757;44.024;20.456;2023-02-15T14:33:37;34.97;;;20.92;;
66169;SDS011;66757;44.024;20.456;2023-02-15T14:36:06;37.35;;;23.20;;
66169;SDS011;66757;44.024;20.456;2023-02-15T14:41:50;27.00;;;17.85;;
66169;SDS011;66757;44.024;20.456;2023-02-15T14:44:18;35.80;;;19.13;;
66169;SDS011;66757;44.024;20.456;2023-02-15T14:46:47;31.25;;;18.85;;
66169;SDS011;66757;44.024;20.456;2023-02-15T14:49:19;29.95;;;15.98;;
66169;SDS011;66757;44.024;20.456;2023-02-15T14:56:45;45.53;;;25.80;;
66169;SDS011;66757;44.024;20.456;2023-02-15T15:01:36;41.67;;;25.85;;
66169;SDS011;66757;44.024;20.456;2023-02-15T15:04:04;34.60;;;22.00;;
66169;SDS011;66757;44.024;20.456;2023-02-15T15:06:32;60.10;;;34.58;;
66169;SDS011;66757;44.024;20.456;2023-02-15T15:16:58;35.85;;;23.58;;
66169;SDS011;66757;44.024;20.456;2023-02-15T15:22:16;72.70;;;39.05;;
66169;SDS011;66757;44.024;20.456;2023-02-15T15:29:52;61.92;;;29.75;;
66169;SDS011;66757;44.024;20.456;2023-02-15T15:32:19;92.65;;;51.53;;
66169;SDS011;66757;44.024;20.456;2023-02-15T15:34:55;96.18;;;54.90;;
66169;SDS011;66757;44.024;20.456;2023-02-15T15:45:26;146.93;;;89.25;;
66169;SDS011;66757;44.024;20.456;2023-02-15T15:50:21;131.20;;;78.43;;
66169;SDS011;66757;44.024;20.456;2023-02-15T15:52:48;116.25;;;73.38;;
66169;SDS011;66757;44.024;20.456;2023-02-15T15:55:18;107.50;;;65.03;;
66169;SDS011;66757;44.024;20.456;2023-02-15T15:57:45;112.57;;;65.18;;
66169;SDS011;66757;44.024;20.456;2023-02-15T16:02:53;103.78;;;59.53;;
66169;SDS011;66757;44.024;20.456;2023-02-15T16:05:18;102.47;;;61.33;;
66169;SDS011;66757;44.024;20.456;2023-02-15T16:07:44;113.35;;;66.78;;
66169;SDS011;66757;44.024;20.456;2023-02-15T16:10:23;137.02;;;76.50;;
66169;SDS011;66757;44.024;20.456;2023-02-15T16:12:49;211.13;;;110.05;;
66169;SDS011;66757;44.024;20.456;2023-02-15T16:15:23;187.32;;;96.97;;
66169;SDS011;66757;44.024;20.456;2023-02-15T16:17:50;187.68;;;93.90;;
66169;SDS011;66757;44.024;20.456;2023-02-15T16:20:21;197.82;;;108.95;;
66169;SDS011;66757;44.024;20.456;2023-02-15T16:22:48;199.80;;;115.28;;
66169;SDS011;66757;44.024;20.456;2023-02-15T16:25:18;183.32;;;105.25;;
66169;SDS011;66757;44.024;20.456;2023-02-15T16:27:46;184.43;;;110.95;;
66169;SDS011;66757;44.024;20.456;2023-02-15T16:30:31;191.07;;;111.97;;
66169;SDS011;66757;44.024;20.456;2023-02-15T16:33:13;219.80;;;132.20;;
66169;SDS011;66757;44.024;20.456;2023-02-15T16:35:53;265.00;;;157.27;;
66169;SDS011;66757;44.024;20.456;2023-02-15T16:38:45;206.00;;;120.20;;
66169;SDS011;66757;44.024;20.456;2023-02-15T16:41:26;237.55;;;141.57;;
66169;SDS011;66757;44.024;20.456;2023-02-15T16:43:52;244.90;;;146.55;;
66169;SDS011;66757;44.024;20.456;2023-02-15T16:46:26;236.43;;;143.32;;
66169;SDS011;66757;44.024;20.456;2023-02-15T16:48:52;221.07;;;135.68;;
66169;SDS011;66757;44.024;20.456;2023-02-15T16:51:23;219.98;;;130.43;;
66169;SDS011;66757;44.024;20.456;2023-02-15T16:53:49;192.35;;;118.50;;
66169;SDS011;66757;44.024;20.456;2023-02-15T16:56:16;203.38;;;125.38;;
66169;SDS011;66757;44.024;20.456;2023-02-15T16:58:48;212.02;;;126.65;;
66169;SDS011;66757;44.024;20.456;2023-02-15T17:01:15;214.10;;;124.35;;
66169;SDS011;66757;44.024;20.456;2023-02-15T17:03:42;302.30;;;174.32;;